sensor_id;sensor_type;location;lat;lon;timestamp;temperature;humidity
59556;DHT22;45374;52.746;6.304;2023-12-20T00:01:26;6.20;99.90
59556;DHT22;45374;52.746;6.304;2023-12-20T00:03:51;6.20;99.90
59556;DHT22;45374;52.746;6.304;2023-12-20T00:06:17;6.20;99.90
59556;DHT22;45374;52.746;6.304;2023-12-20T00:08:43;6.10;99.90
59556;DHT22;45374;52.746;6.304;2023-12-20T00:11:09;6.00;99.90
59556;DHT22;45374;52.746;6.304;2023-12-20T00:13:35;5.90;99.90
59556;DHT22;45374;52.746;6.304;2023-12-20T00:16:00;5.70;99.90
59556;DHT22;45374;52.746;6.304;2023-12-20T00:18:28;5.60;99.90
59556;DHT22;45374;52.746;6.304;2023-12-20T00:20:53;5.50;99.90
59556;DHT22;45374;52.746;6.304;2023-12-20T00:23:19;5.40;99.90
59556;DHT22;45374;52.746;6.304;2023-12-20T00:25:45;5.40;99.90
59556;DHT22;45374;52.746;6.304;2023-12-20T00:28:10;5.40;99.90
59556;DHT22;45374;52.746;6.304;2023-12-20T00:30:36;5.30;99.90
59556;DHT22;45374;52.746;6.304;2023-12-20T00:33:01;5.30;99.90
59556;DHT22;45374;52.746;6.304;2023-12-20T00:35:27;5.40;99.90
59556;DHT22;45374;52.746;6.304;2023-12-20T00:37:53;5.50;99.90
59556;DHT22;45374;52.746;6.304;2023-12-20T00:40:19;5.50;99.90
59556;DHT22;45374;52.746;6.304;2023-12-20T00:42:45;5.60;99.90
59556;DHT22;45374;52.746;6.304;2023-12-20T00:45:12;5.60;99.90
59556;DHT22;45374;52.746;6.304;2023-12-20T00:47:38;5.60;99.90
59556;DHT22;45374;52.746;6.304;2023-12-20T00:50:04;5.70;99.90
59556;DHT22;45374;52.746;6.304;2023-12-20T00:52:29;5.80;99.90
59556;DHT22;45374;52.746;6.304;2023-12-20T00:54:55;5.80;99.90
59556;DHT22;45374;52.746;6.304;2023-12-20T00:57:20;5.80;99.90
59556;DHT22;45374;52.746;6.304;2023-12-20T00:59:46;5.80;99.90
59556;DHT22;45374;52.746;6.304;2023-12-20T01:02:11;5.80;99.90
59556;DHT22;45374;52.746;6.304;2023-12-20T01:04:37;5.90;99.90
59556;DHT22;45374;52.746;6.304;2023-12-20T01:07:03;5.90;99.90
59556;DHT22;45374;52.746;6.304;2023-12-20T01:09:28;5.90;99.90
59556;DHT22;45374;52.746;6.304;2023-12-20T01:11:54;5.90;99.90
59556;DHT22;45374;52.746;6.304;2023-12-20T01:14:19;6.00;99.90
59556;DHT22;45374;52.746;6.304;2023-12-20T01:16:45;6.00;99.90
59556;DHT22;45374;52.746;6.304;2023-12-20T01:19:11;6.00;99.90
59556;DHT22;45374;52.746;6.304;2023-12-20T01:21:37;6.10;99.90
59556;DHT22;45374;52.746;6.304;2023-12-20T01:24:02;6.00;99.90
59556;DHT22;45374;52.746;6.304;2023-12-20T01:26:28;6.10;99.90
59556;DHT22;45374;52.746;6.304;2023-12-20T01:28:53;6.00;99.90
59556;DHT22;45374;52.746;6.304;2023-12-20T01:31:19;6.00;99.90
59556;DHT22;45374;52.746;6.304;2023-12-20T01:33:45;6.00;99.90
59556;DHT22;45374;52.746;6.304;2023-12-20T01:36:11;6.00;99.90
59556;DHT22;45374;52.746;6.304;2023-12-20T01:38:37;6.00;99.90
59556;DHT22;45374;52.746;6.304;2023-12-20T01:41:03;6.00;99.90
59556;DHT22;45374;52.746;6.304;2023-12-20T01:43:30;6.00;99.90
59556;DHT22;45374;52.746;6.304;2023-12-20T01:45:58;6.00;99.90
59556;DHT22;45374;52.746;6.304;2023-12-20T01:48:25;6.00;99.90
59556;DHT22;45374;52.746;6.304;2023-12-20T01:50:52;6.00;99.90
59556;DHT22;45374;52.746;6.304;2023-12-20T01:53:20;6.10;99.90
59556;DHT22;45374;52.746;6.304;2023-12-20T01:55:48;6.00;99.90
59556;DHT22;45374;52.746;6.304;2023-12-20T01:58:15;6.10;99.90
59556;DHT22;45374;52.746;6.304;2023-12-20T02:00:41;6.10;99.90
59556;DHT22;45374;52.746;6.304;2023-12-20T02:03:07;6.20;99.90
59556;DHT22;45374;52.746;6.304;2023-12-20T02:05:35;6.20;99.90
59556;DHT22;45374;52.746;6.304;2023-12-20T02:08:01;6.30;99.90
59556;DHT22;45374;52.746;6.304;2023-12-20T02:10:26;6.30;99.90
59556;DHT22;45374;52.746;6.304;2023-12-20T02:12:52;6.40;99.90
59556;DHT22;45374;52.746;6.304;2023-12-20T02:15:18;6.40;99.90
59556;DHT22;45374;52.746;6.304;2023-12-20T02:17:44;6.40;99.90
59556;DHT22;45374;52.746;6.304;2023-12-20T02:20:10;6.50;99.90
59556;DHT22;45374;52.746;6.304;2023-12-20T02:22:36;6.40;99.90
59556;DHT22;45374;52.746;6.304;2023-12-20T02:25:02;6.50;99.90
59556;DHT22;45374;52.746;6.304;2023-12-20T02:27:28;6.40;99.90
59556;DHT22;45374;52.746;6.304;2023-12-20T02:29:54;6.50;99.90
59556;DHT22;45374;52.746;6.304;2023-12-20T02:32:21;6.60;99.90
59556;DHT22;45374;52.746;6.304;2023-12-20T02:34:47;6.50;99.90
59556;DHT22;45374;52.746;6.304;2023-12-20T02:37:13;6.50;99.90
59556;DHT22;45374;52.746;6.304;2023-12-20T02:39:39;6.50;99.90
59556;DHT22;45374;52.746;6.304;2023-12-20T02:42:04;6.50;99.90
59556;DHT22;45374;52.746;6.304;2023-12-20T02:44:30;6.50;99.90
59556;DHT22;45374;52.746;6.304;2023-12-20T02:46:55;6.50;99.90
59556;DHT22;45374;52.746;6.304;2023-12-20T02:49:21;6.40;99.90
59556;DHT22;45374;52.746;6.304;2023-12-20T02:51:46;6.40;99.90
59556;DHT22;45374;52.746;6.304;2023-12-20T02:54:12;6.30;99.90
59556;DHT22;45374;52.746;6.304;2023-12-20T02:56:38;6.30;99.90
59556;DHT22;45374;52.746;6.304;2023-12-20T02:59:04;6.30;99.90
59556;DHT22;45374;52.746;6.304;2023-12-20T03:01:31;6.30;99.90
59556;DHT22;45374;52.746;6.304;2023-12-20T03:03:57;6.40;99.90
59556;DHT22;45374;52.746;6.304;2023-12-20T03:06:22;6.40;99.90
59556;DHT22;45374;52.746;6.304;2023-12-20T03:08:48;6.50;99.90
59556;DHT22;45374;52.746;6.304;2023-12-20T03:11:13;6.60;99.90
59556;DHT22;45374;52.746;6.304;2023-12-20T03:13:39;6.60;99.90
59556;DHT22;45374;52.746;6.304;2023-12-20T03:16:13;6.70;99.90
59556;DHT22;45374;52.746;6.304;2023-12-20T03:18:39;6.70;99.90
59556;DHT22;45374;52.746;6.304;2023-12-20T03:21:05;6.70;99.90
59556;DHT22;45374;52.746;6.304;2023-12-20T03:23:31;6.70;99.90
59556;DHT22;45374;52.746;6.304;2023-12-20T03:26:00;6.70;99.90
59556;DHT22;45374;52.746;6.304;2023-12-20T03:28:26;6.70;99.90
59556;DHT22;45374;52.746;6.304;2023-12-20T03:30:52;6.70;99.90
59556;DHT22;45374;52.746;6.304;2023-12-20T03:33:17;6.70;99.90
59556;DHT22;45374;52.746;6.304;2023-12-20T03:35:43;6.70;99.90
59556;DHT22;45374;52.746;6.304;2023-12-20T03:38:08;6.70;99.90
59556;DHT22;45374;52.746;6.304;2023-12-20T03:40:34;6.70;99.90
59556;DHT22;45374;52.746;6.304;2023-12-20T03:43:00;6.70;99.90
59556;DHT22;45374;52.746;6.304;2023-12-20T03:45:25;6.80;99.90
59556;DHT22;45374;52.746;6.304;2023-12-20T03:47:51;6.80;99.90
59556;DHT22;45374;52.746;6.304;2023-12-20T03:50:23;6.80;99.90
59556;DHT22;45374;52.746;6.304;2023-12-20T03:52:49;6.80;99.90
59556;DHT22;45374;52.746;6.304;2023-12-20T03:55:16;6.80;99.90
59556;DHT22;45374;52.746;6.304;2023-12-20T03:57:42;6.70;99.90
59556;DHT22;45374;52.746;6.304;2023-12-20T04:00:08;6.70;99.90
59556;DHT22;45374;52.746;6.304;2023-12-20T04:02:45;6.70;99.90
59556;DHT22;45374;52.746;6.304;2023-12-20T04:05:11;6.70;99.90
59556;DHT22;45374;52.746;6.304;2023-12-20T04:07:36;6.70;99.90
59556;DHT22;45374;52.746;6.304;2023-12-20T04:10:03;6.70;99.90
59556;DHT22;45374;52.746;6.304;2023-12-20T04:12:32;6.70;99.90
59556;DHT22;45374;52.746;6.304;2023-12-20T04:14:58;6.80;99.90
59556;DHT22;45374;52.746;6.304;2023-12-20T04:17:24;6.80;99.90
59556;DHT22;45374;52.746;6.304;2023-12-20T04:19:50;6.80;99.90
59556;DHT22;45374;52.746;6.304;2023-12-20T04:22:17;6.80;99.90
59556;DHT22;45374;52.746;6.304;2023-12-20T04:24:43;6.80;99.90
59556;DHT22;45374;52.746;6.304;2023-12-20T04:27:09;6.90;99.90
59556;DHT22;45374;52.746;6.304;2023-12-20T04:29:35;6.80;99.90
59556;DHT22;45374;52.746;6.304;2023-12-20T04:32:00;6.90;99.90
59556;DHT22;45374;52.746;6.304;2023-12-20T04:34:26;6.80;99.90
59556;DHT22;45374;52.746;6.304;2023-12-20T04:36:52;6.80;99.90
59556;DHT22;45374;52.746;6.304;2023-12-20T04:39:18;6.90;99.90
59556;DHT22;45374;52.746;6.304;2023-12-20T04:41:43;6.90;99.90
59556;DHT22;45374;52.746;6.304;2023-12-20T04:44:09;6.90;99.90
59556;DHT22;45374;52.746;6.304;2023-12-20T04:46:34;6.90;99.90
59556;DHT22;45374;52.746;6.304;2023-12-20T04:49:00;6.90;99.90
59556;DHT22;45374;52.746;6.304;2023-12-20T04:51:26;6.90;99.90
59556;DHT22;45374;52.746;6.304;2023-12-20T04:53:51;6.90;99.90
59556;DHT22;45374;52.746;6.304;2023-12-20T04:56:17;6.90;99.90
59556;DHT22;45374;52.746;6.304;2023-12-20T04:58:43;6.90;99.90
59556;DHT22;45374;52.746;6.304;2023-12-20T05:01:09;6.90;99.90
59556;DHT22;45374;52.746;6.304;2023-12-20T05:03:36;7.00;99.90
59556;DHT22;45374;52.746;6.304;2023-12-20T05:06:01;7.10;99.90
59556;DHT22;45374;52.746;6.304;2023-12-20T05:08:27;7.10;99.90
59556;DHT22;45374;52.746;6.304;2023-12-20T05:10:56;7.00;99.90
59556;DHT22;45374;52.746;6.304;2023-12-20T05:13:21;7.00;99.90
59556;DHT22;45374;52.746;6.304;2023-12-20T05:15:47;7.10;99.90
59556;DHT22;45374;52.746;6.304;2023-12-20T05:18:13;7.10;99.90
59556;DHT22;45374;52.746;6.304;2023-12-20T05:20:39;7.10;99.90
59556;DHT22;45374;52.746;6.304;2023-12-20T05:23:04;7.10;99.90
59556;DHT22;45374;52.746;6.304;2023-12-20T05:25:30;7.10;99.90
59556;DHT22;45374;52.746;6.304;2023-12-20T05:27:57;7.10;99.90
59556;DHT22;45374;52.746;6.304;2023-12-20T05:30:22;7.20;99.90
59556;DHT22;45374;52.746;6.304;2023-12-20T05:32:48;7.20;99.90
59556;DHT22;45374;52.746;6.304;2023-12-20T05:35:14;7.20;99.90
59556;DHT22;45374;52.746;6.304;2023-12-20T05:37:40;7.20;99.90
59556;DHT22;45374;52.746;6.304;2023-12-20T05:40:06;7.30;99.90
59556;DHT22;45374;52.746;6.304;2023-12-20T05:42:37;7.20;99.90
59556;DHT22;45374;52.746;6.304;2023-12-20T05:45:03;7.30;99.90
59556;DHT22;45374;52.746;6.304;2023-12-20T05:47:29;7.30;99.90
59556;DHT22;45374;52.746;6.304;2023-12-20T05:49:54;7.30;99.90
59556;DHT22;45374;52.746;6.304;2023-12-20T05:52:20;7.40;99.90
59556;DHT22;45374;52.746;6.304;2023-12-20T05:54:46;7.40;99.90
59556;DHT22;45374;52.746;6.304;2023-12-20T05:57:11;7.40;99.90
59556;DHT22;45374;52.746;6.304;2023-12-20T05:59:37;7.30;99.90
59556;DHT22;45374;52.746;6.304;2023-12-20T06:02:03;7.30;99.90
59556;DHT22;45374;52.746;6.304;2023-12-20T06:04:30;7.30;99.90
59556;DHT22;45374;52.746;6.304;2023-12-20T06:06:55;7.40;99.90
59556;DHT22;45374;52.746;6.304;2023-12-20T06:09:21;7.40;99.90
59556;DHT22;45374;52.746;6.304;2023-12-20T06:11:47;7.40;99.90
59556;DHT22;45374;52.746;6.304;2023-12-20T06:14:12;7.50;99.90
59556;DHT22;45374;52.746;6.304;2023-12-20T06:16:38;7.50;99.90
59556;DHT22;45374;52.746;6.304;2023-12-20T06:19:03;7.50;99.90
59556;DHT22;45374;52.746;6.304;2023-12-20T06:21:29;7.50;99.90
59556;DHT22;45374;52.746;6.304;2023-12-20T06:23:55;7.50;99.90
59556;DHT22;45374;52.746;6.304;2023-12-20T06:26:20;7.50;99.90
59556;DHT22;45374;52.746;6.304;2023-12-20T06:28:46;7.40;99.90
59556;DHT22;45374;52.746;6.304;2023-12-20T06:31:11;7.40;99.90
59556;DHT22;45374;52.746;6.304;2023-12-20T06:33:38;7.40;99.90
59556;DHT22;45374;52.746;6.304;2023-12-20T06:36:06;7.40;99.90
59556;DHT22;45374;52.746;6.304;2023-12-20T06:38:32;7.40;99.90
59556;DHT22;45374;52.746;6.304;2023-12-20T06:40:57;7.40;99.90
59556;DHT22;45374;52.746;6.304;2023-12-20T06:43:24;7.50;99.90
59556;DHT22;45374;52.746;6.304;2023-12-20T06:45:49;7.50;99.90
59556;DHT22;45374;52.746;6.304;2023-12-20T06:48:16;7.50;99.90
59556;DHT22;45374;52.746;6.304;2023-12-20T06:50:42;7.50;99.90
59556;DHT22;45374;52.746;6.304;2023-12-20T06:53:07;7.50;99.90
59556;DHT22;45374;52.746;6.304;2023-12-20T06:55:37;7.50;99.90
59556;DHT22;45374;52.746;6.304;2023-12-20T06:58:03;7.50;99.90
59556;DHT22;45374;52.746;6.304;2023-12-20T07:00:30;7.50;99.90
59556;DHT22;45374;52.746;6.304;2023-12-20T07:02:55;7.50;99.90
59556;DHT22;45374;52.746;6.304;2023-12-20T07:05:21;7.60;99.90
59556;DHT22;45374;52.746;6.304;2023-12-20T07:07:46;7.50;99.90
59556;DHT22;45374;52.746;6.304;2023-12-20T07:10:13;7.50;99.90
59556;DHT22;45374;52.746;6.304;2023-12-20T07:12:38;7.50;99.90
59556;DHT22;45374;52.746;6.304;2023-12-20T07:15:04;7.50;99.90
59556;DHT22;45374;52.746;6.304;2023-12-20T07:17:31;7.50;99.90
59556;DHT22;45374;52.746;6.304;2023-12-20T07:19:58;7.60;99.90
59556;DHT22;45374;52.746;6.304;2023-12-20T07:22:24;7.60;99.90
59556;DHT22;45374;52.746;6.304;2023-12-20T07:24:49;7.60;99.90
59556;DHT22;45374;52.746;6.304;2023-12-20T07:27:17;7.60;99.90
59556;DHT22;45374;52.746;6.304;2023-12-20T07:29:43;7.60;99.90
59556;DHT22;45374;52.746;6.304;2023-12-20T07:32:08;7.70;99.90
59556;DHT22;45374;52.746;6.304;2023-12-20T07:34:34;7.60;99.90
59556;DHT22;45374;52.746;6.304;2023-12-20T07:36:59;7.70;99.90
59556;DHT22;45374;52.746;6.304;2023-12-20T07:39:25;7.70;99.90
59556;DHT22;45374;52.746;6.304;2023-12-20T07:41:51;7.70;99.90
59556;DHT22;45374;52.746;6.304;2023-12-20T07:44:16;7.70;99.90
59556;DHT22;45374;52.746;6.304;2023-12-20T07:46:42;7.80;99.90
59556;DHT22;45374;52.746;6.304;2023-12-20T07:49:07;7.80;99.90
59556;DHT22;45374;52.746;6.304;2023-12-20T07:51:34;7.80;99.90
59556;DHT22;45374;52.746;6.304;2023-12-20T07:53:59;7.80;99.90
59556;DHT22;45374;52.746;6.304;2023-12-20T07:56:25;7.80;99.90
59556;DHT22;45374;52.746;6.304;2023-12-20T07:58:50;7.80;99.90
59556;DHT22;45374;52.746;6.304;2023-12-20T08:01:16;7.70;99.90
59556;DHT22;45374;52.746;6.304;2023-12-20T08:03:43;7.80;99.90
59556;DHT22;45374;52.746;6.304;2023-12-20T08:06:09;7.90;99.90
59556;DHT22;45374;52.746;6.304;2023-12-20T08:08:34;7.90;99.90
59556;DHT22;45374;52.746;6.304;2023-12-20T08:11:00;7.90;99.90
59556;DHT22;45374;52.746;6.304;2023-12-20T08:13:26;7.90;99.90
59556;DHT22;45374;52.746;6.304;2023-12-20T08:15:53;8.00;99.90
59556;DHT22;45374;52.746;6.304;2023-12-20T08:18:18;8.00;99.90
59556;DHT22;45374;52.746;6.304;2023-12-20T08:20:44;8.00;99.90
59556;DHT22;45374;52.746;6.304;2023-12-20T08:23:10;8.10;99.90
59556;DHT22;45374;52.746;6.304;2023-12-20T08:25:35;8.10;99.90
59556;DHT22;45374;52.746;6.304;2023-12-20T08:28:02;8.10;99.90
59556;DHT22;45374;52.746;6.304;2023-12-20T08:30:28;8.20;99.90
59556;DHT22;45374;52.746;6.304;2023-12-20T08:32:55;8.30;99.90
59556;DHT22;45374;52.746;6.304;2023-12-20T08:35:20;8.20;99.90
59556;DHT22;45374;52.746;6.304;2023-12-20T08:37:46;8.20;99.90
59556;DHT22;45374;52.746;6.304;2023-12-20T08:40:12;8.20;99.90
59556;DHT22;45374;52.746;6.304;2023-12-20T08:42:37;8.20;99.90
59556;DHT22;45374;52.746;6.304;2023-12-20T08:45:03;8.20;99.90
59556;DHT22;45374;52.746;6.304;2023-12-20T08:47:29;8.10;99.90
59556;DHT22;45374;52.746;6.304;2023-12-20T08:49:55;8.10;99.90
59556;DHT22;45374;52.746;6.304;2023-12-20T08:52:23;8.20;99.90
59556;DHT22;45374;52.746;6.304;2023-12-20T08:54:50;8.20;99.90
59556;DHT22;45374;52.746;6.304;2023-12-20T08:57:22;8.30;99.90
59556;DHT22;45374;52.746;6.304;2023-12-20T08:59:49;8.30;99.90
59556;DHT22;45374;52.746;6.304;2023-12-20T09:02:16;8.40;99.90
59556;DHT22;45374;52.746;6.304;2023-12-20T09:04:42;8.40;99.90
59556;DHT22;45374;52.746;6.304;2023-12-20T09:07:24;8.40;99.90
59556;DHT22;45374;52.746;6.304;2023-12-20T09:09:50;8.40;99.90
59556;DHT22;45374;52.746;6.304;2023-12-20T09:12:20;8.50;99.90
59556;DHT22;45374;52.746;6.304;2023-12-20T09:14:48;8.50;99.90
59556;DHT22;45374;52.746;6.304;2023-12-20T09:17:15;8.50;99.90
59556;DHT22;45374;52.746;6.304;2023-12-20T09:19:41;8.50;99.90
59556;DHT22;45374;52.746;6.304;2023-12-20T09:22:07;8.50;99.90
59556;DHT22;45374;52.746;6.304;2023-12-20T09:24:33;8.50;99.90
59556;DHT22;45374;52.746;6.304;2023-12-20T09:26:59;8.40;99.90
59556;DHT22;45374;52.746;6.304;2023-12-20T09:29:25;8.40;99.90
59556;DHT22;45374;52.746;6.304;2023-12-20T09:31:50;8.30;99.90
59556;DHT22;45374;52.746;6.304;2023-12-20T09:34:17;8.30;99.90
59556;DHT22;45374;52.746;6.304;2023-12-20T09:36:43;8.30;99.90
59556;DHT22;45374;52.746;6.304;2023-12-20T09:39:18;8.40;99.90
59556;DHT22;45374;52.746;6.304;2023-12-20T09:41:59;8.50;99.90
59556;DHT22;45374;52.746;6.304;2023-12-20T09:44:26;8.50;99.90
59556;DHT22;45374;52.746;6.304;2023-12-20T09:46:53;8.60;99.90
59556;DHT22;45374;52.746;6.304;2023-12-20T09:49:19;8.70;99.90
59556;DHT22;45374;52.746;6.304;2023-12-20T09:51:50;8.80;99.90
59556;DHT22;45374;52.746;6.304;2023-12-20T09:54:18;8.90;99.90
59556;DHT22;45374;52.746;6.304;2023-12-20T09:56:47;8.90;99.90
59556;DHT22;45374;52.746;6.304;2023-12-20T09:59:13;8.90;99.90
59556;DHT22;45374;52.746;6.304;2023-12-20T10:01:40;8.60;99.90
59556;DHT22;45374;52.746;6.304;2023-12-20T10:04:07;8.00;99.90
59556;DHT22;45374;52.746;6.304;2023-12-20T10:06:41;7.30;99.90
59556;DHT22;45374;52.746;6.304;2023-12-20T10:09:07;6.90;99.90
59556;DHT22;45374;52.746;6.304;2023-12-20T10:11:32;6.70;99.90
59556;DHT22;45374;52.746;6.304;2023-12-20T10:14:00;6.60;99.90
59556;DHT22;45374;52.746;6.304;2023-12-20T10:16:29;6.50;99.90
59556;DHT22;45374;52.746;6.304;2023-12-20T10:18:56;6.50;99.90
59556;DHT22;45374;52.746;6.304;2023-12-20T10:21:22;6.60;99.90
59556;DHT22;45374;52.746;6.304;2023-12-20T10:23:54;6.60;99.90
59556;DHT22;45374;52.746;6.304;2023-12-20T10:26:21;6.60;99.90
59556;DHT22;45374;52.746;6.304;2023-12-20T10:28:53;6.60;99.90
59556;DHT22;45374;52.746;6.304;2023-12-20T10:31:29;6.70;99.90
59556;DHT22;45374;52.746;6.304;2023-12-20T10:33:59;6.70;99.90
59556;DHT22;45374;52.746;6.304;2023-12-20T10:36:26;6.70;99.90
59556;DHT22;45374;52.746;6.304;2023-12-20T10:39:04;6.70;99.90
59556;DHT22;45374;52.746;6.304;2023-12-20T10:41:32;6.70;99.90
59556;DHT22;45374;52.746;6.304;2023-12-20T10:44:02;6.70;99.90
59556;DHT22;45374;52.746;6.304;2023-12-20T10:46:29;6.60;99.90
59556;DHT22;45374;52.746;6.304;2023-12-20T10:48:56;6.60;99.90
59556;DHT22;45374;52.746;6.304;2023-12-20T10:51:24;6.60;99.90
59556;DHT22;45374;52.746;6.304;2023-12-20T10:53:52;6.60;99.90
59556;DHT22;45374;52.746;6.304;2023-12-20T10:56:19;6.60;99.90
59556;DHT22;45374;52.746;6.304;2023-12-20T10:58:46;6.60;99.90
59556;DHT22;45374;52.746;6.304;2023-12-20T11:01:17;6.60;99.90
59556;DHT22;45374;52.746;6.304;2023-12-20T11:03:53;6.60;99.90
59556;DHT22;45374;52.746;6.304;2023-12-20T11:09:24;6.60;99.90
59556;DHT22;45374;52.746;6.304;2023-12-20T11:17:10;6.50;99.90
59556;DHT22;45374;52.746;6.304;2023-12-20T11:22:20;6.60;99.90
59556;DHT22;45374;52.746;6.304;2023-12-20T11:24:47;6.60;99.90
59556;DHT22;45374;52.746;6.304;2023-12-20T11:27:14;6.70;99.90
59556;DHT22;45374;52.746;6.304;2023-12-20T11:29:40;6.80;99.90
59556;DHT22;45374;52.746;6.304;2023-12-20T11:35:01;6.80;99.90
59556;DHT22;45374;52.746;6.304;2023-12-20T11:37:41;6.90;99.90
59556;DHT22;45374;52.746;6.304;2023-12-20T11:40:17;6.90;99.90
59556;DHT22;45374;52.746;6.304;2023-12-20T11:42:44;6.90;99.90
59556;DHT22;45374;52.746;6.304;2023-12-20T11:45:17;6.90;99.90
59556;DHT22;45374;52.746;6.304;2023-12-20T11:47:48;6.90;99.90
59556;DHT22;45374;52.746;6.304;2023-12-20T11:50:18;6.90;99.90
59556;DHT22;45374;52.746;6.304;2023-12-20T11:52:44;6.90;99.90
59556;DHT22;45374;52.746;6.304;2023-12-20T11:55:10;6.90;99.90
59556;DHT22;45374;52.746;6.304;2023-12-20T11:57:36;6.90;99.90
59556;DHT22;45374;52.746;6.304;2023-12-20T12:00:03;6.90;99.90
59556;DHT22;45374;52.746;6.304;2023-12-20T12:02:29;6.80;99.90
59556;DHT22;45374;52.746;6.304;2023-12-20T12:04:55;6.80;99.90
59556;DHT22;45374;52.746;6.304;2023-12-20T12:07:22;6.80;99.90
59556;DHT22;45374;52.746;6.304;2023-12-20T12:09:48;6.70;99.90
59556;DHT22;45374;52.746;6.304;2023-12-20T12:12:14;6.80;99.90
59556;DHT22;45374;52.746;6.304;2023-12-20T12:14:40;6.80;99.90
59556;DHT22;45374;52.746;6.304;2023-12-20T12:17:13;6.70;99.90
59556;DHT22;45374;52.746;6.304;2023-12-20T12:19:40;6.80;99.90
59556;DHT22;45374;52.746;6.304;2023-12-20T12:22:06;6.70;99.90
59556;DHT22;45374;52.746;6.304;2023-12-20T12:24:48;6.70;99.90
59556;DHT22;45374;52.746;6.304;2023-12-20T12:27:15;6.70;99.90
59556;DHT22;45374;52.746;6.304;2023-12-20T12:30:01;6.70;99.90
59556;DHT22;45374;52.746;6.304;2023-12-20T12:32:31;6.70;99.90
59556;DHT22;45374;52.746;6.304;2023-12-20T12:34:57;6.60;99.90
59556;DHT22;45374;52.746;6.304;2023-12-20T12:37:23;6.60;99.90
59556;DHT22;45374;52.746;6.304;2023-12-20T12:39:53;6.60;99.90
59556;DHT22;45374;52.746;6.304;2023-12-20T12:42:20;6.60;99.90
59556;DHT22;45374;52.746;6.304;2023-12-20T12:44:47;6.60;99.90
59556;DHT22;45374;52.746;6.304;2023-12-20T12:47:13;6.60;99.90
59556;DHT22;45374;52.746;6.304;2023-12-20T12:49:40;6.60;99.90
59556;DHT22;45374;52.746;6.304;2023-12-20T12:52:06;6.60;99.90
59556;DHT22;45374;52.746;6.304;2023-12-20T12:54:31;6.60;99.90
59556;DHT22;45374;52.746;6.304;2023-12-20T12:56:57;6.60;99.90
59556;DHT22;45374;52.746;6.304;2023-12-20T12:59:24;6.50;99.90
59556;DHT22;45374;52.746;6.304;2023-12-20T13:01:50;6.50;99.90
59556;DHT22;45374;52.746;6.304;2023-12-20T13:04:15;6.50;99.90
59556;DHT22;45374;52.746;6.304;2023-12-20T13:06:41;6.40;99.90
59556;DHT22;45374;52.746;6.304;2023-12-20T13:09:07;6.40;99.90
59556;DHT22;45374;52.746;6.304;2023-12-20T13:11:35;6.40;99.90
59556;DHT22;45374;52.746;6.304;2023-12-20T13:14:00;6.40;99.90
59556;DHT22;45374;52.746;6.304;2023-12-20T13:16:26;6.30;99.90
59556;DHT22;45374;52.746;6.304;2023-12-20T13:18:52;6.30;99.90
59556;DHT22;45374;52.746;6.304;2023-12-20T13:21:19;6.30;99.90
59556;DHT22;45374;52.746;6.304;2023-12-20T13:23:46;6.30;99.90
59556;DHT22;45374;52.746;6.304;2023-12-20T13:26:12;6.30;99.90
59556;DHT22;45374;52.746;6.304;2023-12-20T13:28:39;6.30;99.90
59556;DHT22;45374;52.746;6.304;2023-12-20T13:31:05;6.30;99.90
59556;DHT22;45374;52.746;6.304;2023-12-20T13:33:30;6.30;99.90
59556;DHT22;45374;52.746;6.304;2023-12-20T13:35:56;6.20;99.90
59556;DHT22;45374;52.746;6.304;2023-12-20T13:38:24;6.20;99.90
59556;DHT22;45374;52.746;6.304;2023-12-20T13:40:50;6.20;99.90
59556;DHT22;45374;52.746;6.304;2023-12-20T13:43:18;6.20;99.90
59556;DHT22;45374;52.746;6.304;2023-12-20T13:45:47;6.20;99.90
59556;DHT22;45374;52.746;6.304;2023-12-20T13:48:14;6.20;99.90
59556;DHT22;45374;52.746;6.304;2023-12-20T13:50:40;6.30;99.90
59556;DHT22;45374;52.746;6.304;2023-12-20T13:53:06;6.30;99.90
59556;DHT22;45374;52.746;6.304;2023-12-20T13:55:31;6.40;99.90
59556;DHT22;45374;52.746;6.304;2023-12-20T13:57:57;6.40;99.90
59556;DHT22;45374;52.746;6.304;2023-12-20T14:00:23;6.50;99.90
59556;DHT22;45374;52.746;6.304;2023-12-20T14:02:50;6.40;99.90
59556;DHT22;45374;52.746;6.304;2023-12-20T14:05:16;6.40;99.90
59556;DHT22;45374;52.746;6.304;2023-12-20T14:07:46;6.50;99.90
59556;DHT22;45374;52.746;6.304;2023-12-20T14:10:12;6.50;99.90
59556;DHT22;45374;52.746;6.304;2023-12-20T14:12:39;6.50;99.90
59556;DHT22;45374;52.746;6.304;2023-12-20T14:15:07;6.60;99.90
59556;DHT22;45374;52.746;6.304;2023-12-20T14:17:39;6.60;99.90
59556;DHT22;45374;52.746;6.304;2023-12-20T14:20:06;6.60;99.90
59556;DHT22;45374;52.746;6.304;2023-12-20T14:22:32;6.60;99.90
59556;DHT22;45374;52.746;6.304;2023-12-20T14:25:04;6.60;99.90
59556;DHT22;45374;52.746;6.304;2023-12-20T14:27:30;6.60;99.90
59556;DHT22;45374;52.746;6.304;2023-12-20T14:29:56;6.60;99.90
59556;DHT22;45374;52.746;6.304;2023-12-20T14:32:22;6.70;99.90
59556;DHT22;45374;52.746;6.304;2023-12-20T14:34:47;6.70;99.90
59556;DHT22;45374;52.746;6.304;2023-12-20T14:37:13;6.70;99.90
59556;DHT22;45374;52.746;6.304;2023-12-20T14:39:39;6.90;99.90
59556;DHT22;45374;52.746;6.304;2023-12-20T14:42:07;7.10;99.90
59556;DHT22;45374;52.746;6.304;2023-12-20T14:44:36;7.20;99.90
59556;DHT22;45374;52.746;6.304;2023-12-20T14:47:02;7.30;99.90
59556;DHT22;45374;52.746;6.304;2023-12-20T14:49:27;7.40;99.90
59556;DHT22;45374;52.746;6.304;2023-12-20T14:51:54;7.50;99.90
59556;DHT22;45374;52.746;6.304;2023-12-20T14:54:20;7.60;99.90
59556;DHT22;45374;52.746;6.304;2023-12-20T14:56:47;7.70;99.90
59556;DHT22;45374;52.746;6.304;2023-12-20T14:59:13;7.70;99.90
59556;DHT22;45374;52.746;6.304;2023-12-20T15:01:39;7.70;99.90
59556;DHT22;45374;52.746;6.304;2023-12-20T15:04:09;7.70;99.90
59556;DHT22;45374;52.746;6.304;2023-12-20T15:06:35;7.80;99.90
59556;DHT22;45374;52.746;6.304;2023-12-20T15:09:01;7.70;99.90
59556;DHT22;45374;52.746;6.304;2023-12-20T15:11:28;7.70;99.90
59556;DHT22;45374;52.746;6.304;2023-12-20T15:13:54;7.70;99.90
59556;DHT22;45374;52.746;6.304;2023-12-20T15:16:24;7.70;99.90
59556;DHT22;45374;52.746;6.304;2023-12-20T15:18:51;7.70;99.90
59556;DHT22;45374;52.746;6.304;2023-12-20T15:21:19;7.80;99.90
59556;DHT22;45374;52.746;6.304;2023-12-20T15:23:45;7.80;99.90
59556;DHT22;45374;52.746;6.304;2023-12-20T15:26:21;7.70;99.90
59556;DHT22;45374;52.746;6.304;2023-12-20T15:28:48;7.70;99.90
59556;DHT22;45374;52.746;6.304;2023-12-20T15:31:13;7.70;99.90
59556;DHT22;45374;52.746;6.304;2023-12-20T15:33:39;7.70;99.90
59556;DHT22;45374;52.746;6.304;2023-12-20T15:36:05;7.70;99.90
59556;DHT22;45374;52.746;6.304;2023-12-20T15:38:32;7.80;99.90
59556;DHT22;45374;52.746;6.304;2023-12-20T15:41:00;7.70;99.90
59556;DHT22;45374;52.746;6.304;2023-12-20T15:43:27;7.70;99.90
59556;DHT22;45374;52.746;6.304;2023-12-20T15:45:52;7.70;99.90
59556;DHT22;45374;52.746;6.304;2023-12-20T15:48:19;7.60;99.90
59556;DHT22;45374;52.746;6.304;2023-12-20T15:50:45;7.70;99.90
59556;DHT22;45374;52.746;6.304;2023-12-20T15:53:11;7.60;99.90
59556;DHT22;45374;52.746;6.304;2023-12-20T15:55:37;7.60;99.90